sensor_id;sensor_type;location;lat;lon;timestamp;pressure;altitude;pressure_sealevel;temperature;humidity
57192;BME280;43052;52.588;13.396;2023-03-22T00:01:18;100775.63;;;9.86;80.27
57192;BME280;43052;52.588;13.396;2023-03-22T00:03:45;100774.78;;;9.78;80.28
57192;BME280;43052;52.588;13.396;2023-03-22T00:06:10;100777.41;;;9.68;80.54
57192;BME280;43052;52.588;13.396;2023-03-22T00:08:36;100767.88;;;9.60;80.62
57192;BME280;43052;52.588;13.396;2023-03-22T00:11:02;100756.53;;;9.54;80.77
57192;BME280;43052;52.588;13.396;2023-03-22T00:13:28;100769.63;;;9.56;81.04
57192;BME280;43052;52.588;13.396;2023-03-22T00:15:54;100772.22;;;9.57;81.06
57192;BME280;43052;52.588;13.396;2023-03-22T00:18:22;100765.22;;;9.63;81.25
57192;BME280;43052;52.588;13.396;2023-03-22T00:20:52;100769.59;;;9.62;81.23
57192;BME280;43052;52.588;13.396;2023-03-22T00:23:18;100766.13;;;9.60;81.17
57192;BME280;43052;52.588;13.396;2023-03-22T00:25:44;100758.28;;;9.52;81.14
57192;BME280;43052;52.588;13.396;2023-03-22T00:28:10;100756.56;;;9.39;80.91
57192;BME280;43052;52.588;13.396;2023-03-22T00:30:35;100766.13;;;9.28;81.01
57192;BME280;43052;52.588;13.396;2023-03-22T00:33:00;100761.78;;;9.17;81.37
57192;BME280;43052;52.588;13.396;2023-03-22T00:35:26;100755.69;;;9.04;81.56
57192;BME280;43052;52.588;13.396;2023-03-22T00:37:52;100747.84;;;8.93;81.63
57192;BME280;43052;52.588;13.396;2023-03-22T00:40:17;100748.72;;;8.86;81.65
57192;BME280;43052;52.588;13.396;2023-03-22T00:42:42;100742.66;;;8.81;82.17
57192;BME280;43052;52.588;13.396;2023-03-22T00:45:09;100746.97;;;8.82;81.95
57192;BME280;43052;52.588;13.396;2023-03-22T00:47:36;100746.13;;;8.85;82.34
57192;BME280;43052;52.588;13.396;2023-03-22T00:50:04;100750.47;;;8.92;82.35
57192;BME280;43052;52.588;13.396;2023-03-22T00:52:30;100746.13;;;8.96;82.33
57192;BME280;43052;52.588;13.396;2023-03-22T00:54:55;100746.13;;;8.97;82.35
57192;BME280;43052;52.588;13.396;2023-03-22T00:57:21;100746.13;;;8.92;82.24
57192;BME280;43052;52.588;13.396;2023-03-22T00:59:47;100740.91;;;8.86;82.43
57192;BME280;43052;52.588;13.396;2023-03-22T01:02:12;100744.38;;;8.85;82.43
57192;BME280;43052;52.588;13.396;2023-03-22T01:04:39;100754.81;;;8.91;82.67
57192;BME280;43052;52.588;13.396;2023-03-22T01:07:15;100753.06;;;8.90;82.46
57192;BME280;43052;52.588;13.396;2023-03-22T01:09:50;100745.25;;;8.90;82.84
57192;BME280;43052;52.588;13.396;2023-03-22T01:12:17;100735.69;;;8.89;82.66
57192;BME280;43052;52.588;13.396;2023-03-22T01:14:42;100738.31;;;8.89;82.85
57192;BME280;43052;52.588;13.396;2023-03-22T01:17:08;100719.16;;;8.84;82.91
57192;BME280;43052;52.588;13.396;2023-03-22T01:19:35;100726.13;;;8.81;83.04
57192;BME280;43052;52.588;13.396;2023-03-22T01:22:01;100736.56;;;8.88;83.07
57192;BME280;43052;52.588;13.396;2023-03-22T01:24:26;100727.84;;;8.92;83.06
57192;BME280;43052;52.588;13.396;2023-03-22T01:26:51;100723.53;;;8.99;83.16
57192;BME280;43052;52.588;13.396;2023-03-22T01:29:16;100718.31;;;9.07;82.97
57192;BME280;43052;52.588;13.396;2023-03-22T01:31:42;100719.16;;;9.09;82.85
57192;BME280;43052;52.588;13.396;2023-03-22T01:34:07;100715.72;;;9.12;82.75
57192;BME280;43052;52.588;13.396;2023-03-22T01:36:33;100704.38;;;9.11;82.88
57192;BME280;43052;52.588;13.396;2023-03-22T01:38:58;100705.25;;;9.18;83.19
57192;BME280;43052;52.588;13.396;2023-03-22T01:41:23;100700.03;;;9.18;82.80
57192;BME280;43052;52.588;13.396;2023-03-22T01:44:13;100698.28;;;9.18;83.15
57192;BME280;43052;52.588;13.396;2023-03-22T01:46:41;100701.78;;;9.20;82.73
57192;BME280;43052;52.588;13.396;2023-03-22T01:49:11;100691.34;;;9.16;82.82
57192;BME280;43052;52.588;13.396;2023-03-22T01:51:38;100694.84;;;9.16;82.98
57192;BME280;43052;52.588;13.396;2023-03-22T01:54:07;100689.59;;;9.10;83.03
57192;BME280;43052;52.588;13.396;2023-03-22T01:56:36;100692.22;;;9.16;83.13
57192;BME280;43052;52.588;13.396;2023-03-22T01:59:02;100695.69;;;9.18;83.00
57192;BME280;43052;52.588;13.396;2023-03-22T02:01:28;100687.84;;;9.18;82.89
57192;BME280;43052;52.588;13.396;2023-03-22T02:04:09;100693.97;;;9.14;82.91
57192;BME280;43052;52.588;13.396;2023-03-22T02:06:36;100694.81;;;9.15;83.16
57192;BME280;43052;52.588;13.396;2023-03-22T02:09:13;100694.81;;;9.15;83.07
57192;BME280;43052;52.588;13.396;2023-03-22T02:11:45;100693.09;;;9.15;83.10
57192;BME280;43052;52.588;13.396;2023-03-22T02:17:35;100689.59;;;9.10;83.08
57192;BME280;43052;52.588;13.396;2023-03-22T02:20:22;100684.41;;;9.04;83.28
57192;BME280;43052;52.588;13.396;2023-03-22T02:23:17;100687.00;;;9.01;82.99
57192;BME280;43052;52.588;13.396;2023-03-22T02:28:57;100678.31;;;8.92;83.08
57192;BME280;43052;52.588;13.396;2023-03-22T02:34:41;100682.66;;;8.87;83.47
57192;BME280;43052;52.588;13.396;2023-03-22T02:40:13;100680.94;;;8.85;83.07
57192;BME280;43052;52.588;13.396;2023-03-22T02:43:13;100675.72;;;8.80;83.13
57192;BME280;43052;52.588;13.396;2023-03-22T02:46:07;100673.09;;;8.74;83.08
57192;BME280;43052;52.588;13.396;2023-03-22T02:48:43;100674.81;;;8.70;82.97
57192;BME280;43052;52.588;13.396;2023-03-22T02:51:28;100665.28;;;8.68;83.14
57192;BME280;43052;52.588;13.396;2023-03-22T02:54:01;100669.63;;;8.67;83.01
57192;BME280;43052;52.588;13.396;2023-03-22T02:56:32;100667.88;;;8.68;83.10
57192;BME280;43052;52.588;13.396;2023-03-22T02:59:02;100659.19;;;8.70;83.13
57192;BME280;43052;52.588;13.396;2023-03-22T03:01:34;100667.88;;;8.69;83.10
57192;BME280;43052;52.588;13.396;2023-03-22T03:04:03;100657.44;;;8.63;83.21
57192;BME280;43052;52.588;13.396;2023-03-22T03:06:34;100644.41;;;8.66;83.09
57192;BME280;43052;52.588;13.396;2023-03-22T03:09:03;100652.22;;;8.65;82.98
57192;BME280;43052;52.588;13.396;2023-03-22T03:11:29;100653.09;;;8.59;83.15
57192;BME280;43052;52.588;13.396;2023-03-22T03:13:56;100661.78;;;8.50;83.17
57192;BME280;43052;52.588;13.396;2023-03-22T03:16:24;100655.66;;;8.42;83.22
57192;BME280;43052;52.588;13.396;2023-03-22T03:19:11;100653.91;;;8.39;83.27
57192;BME280;43052;52.588;13.396;2023-03-22T03:21:50;100654.78;;;8.38;83.40
57192;BME280;43052;52.588;13.396;2023-03-22T03:24:38;100665.19;;;8.35;83.38
57192;BME280;43052;52.588;13.396;2023-03-22T03:27:23;100665.19;;;8.29;83.33
57192;BME280;43052;52.588;13.396;2023-03-22T03:32:46;100675.56;;;8.16;83.40
57192;BME280;43052;52.588;13.396;2023-03-22T03:35:19;100681.66;;;8.22;83.71
57192;BME280;43052;52.588;13.396;2023-03-22T03:38:17;100670.41;;;8.37;84.15
57192;BME280;43052;52.588;13.396;2023-03-22T03:40:46;100675.69;;;8.54;83.91
57192;BME280;43052;52.588;13.396;2023-03-22T03:43:14;100668.75;;;8.67;83.64
57192;BME280;43052;52.588;13.396;2023-03-22T03:45:40;100671.38;;;8.79;83.82
57192;BME280;43052;52.588;13.396;2023-03-22T03:48:09;100667.03;;;8.87;83.64
57192;BME280;43052;52.588;13.396;2023-03-22T03:50:37;100665.28;;;8.91;83.63
57192;BME280;43052;52.588;13.396;2023-03-22T03:53:03;100666.16;;;8.88;83.59
57192;BME280;43052;52.588;13.396;2023-03-22T03:55:29;100657.44;;;8.82;83.42
57192;BME280;43052;52.588;13.396;2023-03-22T03:57:55;100657.44;;;8.88;83.70
57192;BME280;43052;52.588;13.396;2023-03-22T04:00:21;100662.66;;;8.96;83.75
57192;BME280;43052;52.588;13.396;2023-03-22T04:02:46;100660.03;;;9.02;83.84
57192;BME280;43052;52.588;13.396;2023-03-22T04:05:12;100664.41;;;9.11;83.65
57192;BME280;43052;52.588;13.396;2023-03-22T04:07:38;100653.09;;;9.21;83.72
57192;BME280;43052;52.588;13.396;2023-03-22T04:10:04;100657.41;;;9.28;83.67
57192;BME280;43052;52.588;13.396;2023-03-22T04:12:30;100657.41;;;9.27;83.18
57192;BME280;43052;52.588;13.396;2023-03-22T04:14:55;100656.56;;;9.20;83.38
57192;BME280;43052;52.588;13.396;2023-03-22T04:17:21;100660.03;;;9.19;83.35
57192;BME280;43052;52.588;13.396;2023-03-22T04:19:46;100662.63;;;9.20;83.55
57192;BME280;43052;52.588;13.396;2023-03-22T04:22:12;100660.91;;;9.24;83.35
57192;BME280;43052;52.588;13.396;2023-03-22T04:24:39;100663.50;;;9.32;83.47
57192;BME280;43052;52.588;13.396;2023-03-22T04:27:05;100668.72;;;9.33;83.51
57192;BME280;43052;52.588;13.396;2023-03-22T04:29:32;100671.31;;;9.38;83.46
57192;BME280;43052;52.588;13.396;2023-03-22T04:32:01;100672.16;;;9.41;83.42
57192;BME280;43052;52.588;13.396;2023-03-22T04:34:26;100661.72;;;9.45;83.39
57192;BME280;43052;52.588;13.396;2023-03-22T04:36:51;100658.22;;;9.49;83.24
57192;BME280;43052;52.588;13.396;2023-03-22T04:39:16;100660.84;;;9.50;82.93
57192;BME280;43052;52.588;13.396;2023-03-22T04:41:42;100650.44;;;9.46;82.67
57192;BME280;43052;52.588;13.396;2023-03-22T04:44:07;100657.38;;;9.39;82.53
57192;BME280;43052;52.588;13.396;2023-03-22T04:46:35;100650.44;;;9.33;82.74
57192;BME280;43052;52.588;13.396;2023-03-22T04:49:00;100648.72;;;9.31;82.81
57192;BME280;43052;52.588;13.396;2023-03-22T04:51:26;100657.41;;;9.33;82.64
57192;BME280;43052;52.588;13.396;2023-03-22T04:53:53;100647.84;;;9.32;82.73
57192;BME280;43052;52.588;13.396;2023-03-22T04:56:18;100644.34;;;9.31;82.66
57192;BME280;43052;52.588;13.396;2023-03-22T04:58:44;100643.50;;;9.29;82.47
57192;BME280;43052;52.588;13.396;2023-03-22T05:01:11;100647.81;;;9.30;82.49
57192;BME280;43052;52.588;13.396;2023-03-22T05:03:38;100635.66;;;9.31;82.34
57192;BME280;43052;52.588;13.396;2023-03-22T05:06:05;100639.13;;;9.31;82.20
57192;BME280;43052;52.588;13.396;2023-03-22T05:08:31;100632.16;;;9.33;82.45
57192;BME280;43052;52.588;13.396;2023-03-22T05:10:58;100631.31;;;9.33;82.08
57192;BME280;43052;52.588;13.396;2023-03-22T05:13:27;100626.94;;;9.33;82.21
57192;BME280;43052;52.588;13.396;2023-03-22T05:15:53;100631.28;;;9.36;82.25
57192;BME280;43052;52.588;13.396;2023-03-22T05:18:19;100629.53;;;9.39;82.06
57192;BME280;43052;52.588;13.396;2023-03-22T05:20:46;100635.63;;;9.45;81.95
57192;BME280;43052;52.588;13.396;2023-03-22T05:23:12;100631.28;;;9.47;81.91
57192;BME280;43052;52.588;13.396;2023-03-22T05:25:38;100629.50;;;9.49;82.07
57192;BME280;43052;52.588;13.396;2023-03-22T05:28:04;100622.56;;;9.51;81.94
57192;BME280;43052;52.588;13.396;2023-03-22T05:30:30;100627.78;;;9.51;81.74
57192;BME280;43052;52.588;13.396;2023-03-22T05:33:01;100624.31;;;9.50;81.56
57192;BME280;43052;52.588;13.396;2023-03-22T05:35:27;100626.91;;;9.52;81.58
57192;BME280;43052;52.588;13.396;2023-03-22T05:37:53;100630.38;;;9.52;81.29
57192;BME280;43052;52.588;13.396;2023-03-22T05:40:18;100619.06;;;9.49;81.62
57192;BME280;43052;52.588;13.396;2023-03-22T05:42:43;100628.66;;;9.51;81.26
57192;BME280;43052;52.588;13.396;2023-03-22T05:45:09;100622.56;;;9.51;81.13
57192;BME280;43052;52.588;13.396;2023-03-22T05:47:34;100626.91;;;9.50;80.83
57192;BME280;43052;52.588;13.396;2023-03-22T05:50:01;100627.78;;;9.49;80.93
57192;BME280;43052;52.588;13.396;2023-03-22T05:52:26;100621.69;;;9.47;80.63
57192;BME280;43052;52.588;13.396;2023-03-22T05:54:52;100626.06;;;9.47;80.67
57192;BME280;43052;52.588;13.396;2023-03-22T05:57:17;100623.44;;;9.47;80.81
57192;BME280;43052;52.588;13.396;2023-03-22T05:59:42;100620.81;;;9.45;80.52
57192;BME280;43052;52.588;13.396;2023-03-22T06:02:07;100622.56;;;9.46;80.25
57192;BME280;43052;52.588;13.396;2023-03-22T06:04:33;100620.84;;;9.47;80.39
57192;BME280;43052;52.588;13.396;2023-03-22T06:06:58;100613.88;;;9.47;80.26
57192;BME280;43052;52.588;13.396;2023-03-22T06:09:23;100619.94;;;9.52;80.29
57192;BME280;43052;52.588;13.396;2023-03-22T06:11:48;100615.59;;;9.56;80.09
57192;BME280;43052;52.588;13.396;2023-03-22T06:14:14;100621.66;;;9.58;79.86
57192;BME280;43052;52.588;13.396;2023-03-22T06:16:39;100613.81;;;9.61;79.89
57192;BME280;43052;52.588;13.396;2023-03-22T06:19:05;100620.75;;;9.64;79.79
57192;BME280;43052;52.588;13.396;2023-03-22T06:21:30;100621.63;;;9.70;79.61
57192;BME280;43052;52.588;13.396;2023-03-22T06:23:56;100621.63;;;9.74;79.47
57192;BME280;43052;52.588;13.396;2023-03-22T06:26:21;100625.91;;;9.79;79.25
57192;BME280;43052;52.588;13.396;2023-03-22T06:28:46;100620.69;;;9.81;79.19
57192;BME280;43052;52.588;13.396;2023-03-22T06:31:11;100619.78;;;9.88;79.07
57192;BME280;43052;52.588;13.396;2023-03-22T06:33:37;100621.50;;;9.92;79.06
57192;BME280;43052;52.588;13.396;2023-03-22T06:36:02;100617.13;;;10.00;78.85
57192;BME280;43052;52.588;13.396;2023-03-22T06:38:28;100614.47;;;10.03;78.74
57192;BME280;43052;52.588;13.396;2023-03-22T06:40:54;100630.09;;;10.13;78.38
57192;BME280;43052;52.588;13.396;2023-03-22T06:43:19;100625.72;;;10.16;78.21
57192;BME280;43052;52.588;13.396;2023-03-22T06:45:46;100630.03;;;10.25;77.85
57192;BME280;43052;52.588;13.396;2023-03-22T06:48:11;100631.75;;;10.31;77.73
57192;BME280;43052;52.588;13.396;2023-03-22T06:50:36;100633.47;;;10.35;77.65
57192;BME280;43052;52.588;13.396;2023-03-22T06:53:03;100633.47;;;10.40;77.49
57192;BME280;43052;52.588;13.396;2023-03-22T06:55:29;100633.41;;;10.46;77.45
57192;BME280;43052;52.588;13.396;2023-03-22T06:57:58;100632.53;;;10.48;77.39
57192;BME280;43052;52.588;13.396;2023-03-22T07:00:24;100640.34;;;10.52;76.82
57192;BME280;43052;52.588;13.396;2023-03-22T07:02:49;100634.22;;;10.57;76.68
57192;BME280;43052;52.588;13.396;2023-03-22T07:05:14;100630.66;;;10.64;76.66
57192;BME280;43052;52.588;13.396;2023-03-22T07:07:39;100632.34;;;10.73;76.52
57192;BME280;43052;52.588;13.396;2023-03-22T07:10:05;100635.72;;;10.86;75.86
57192;BME280;43052;52.588;13.396;2023-03-22T07:12:32;100633.94;;;10.93;75.54
57192;BME280;43052;52.588;13.396;2023-03-22T07:14:57;100631.25;;;10.99;75.41
57192;BME280;43052;52.588;13.396;2023-03-22T07:17:22;100632.91;;;11.08;75.15
57192;BME280;43052;52.588;13.396;2023-03-22T07:19:48;100633.69;;;11.16;74.96
57192;BME280;43052;52.588;13.396;2023-03-22T07:22:14;100630.97;;;11.27;74.55
57192;BME280;43052;52.588;13.396;2023-03-22T07:24:39;100622.19;;;11.34;74.38
57192;BME280;43052;52.588;13.396;2023-03-22T07:27:05;100622.88;;;11.50;73.97
57192;BME280;43052;52.588;13.396;2023-03-22T07:29:31;100615.75;;;11.62;73.78
57192;BME280;43052;52.588;13.396;2023-03-22T07:31:56;100618.22;;;11.74;73.40
57192;BME280;43052;52.588;13.396;2023-03-22T07:34:25;100622.47;;;11.84;73.11
57192;BME280;43052;52.588;13.396;2023-03-22T07:37:02;100620.50;;;12.00;72.79
57192;BME280;43052;52.588;13.396;2023-03-22T07:39:29;100618.72;;;12.05;72.14
57192;BME280;43052;52.588;13.396;2023-03-22T07:41:55;100608.06;;;12.16;72.02
57192;BME280;43052;52.588;13.396;2023-03-22T07:44:21;100612.97;;;12.40;71.53
57192;BME280;43052;52.588;13.396;2023-03-22T07:47:00;100595.97;;;12.64;70.87
57192;BME280;43052;52.588;13.396;2023-03-22T07:49:51;100593.69;;;12.95;69.64
57192;BME280;43052;52.588;13.396;2023-03-22T07:52:17;100591.41;;;13.24;69.13
57192;BME280;43052;52.588;13.396;2023-03-22T07:54:42;100590.53;;;13.69;68.14
57192;BME280;43052;52.588;13.396;2023-03-22T07:57:08;100594.72;;;14.18;67.04
57192;BME280;43052;52.588;13.396;2023-03-22T07:59:34;100602.84;;;14.81;65.95
57192;BME280;43052;52.588;13.396;2023-03-22T08:01:59;100601.63;;;15.59;64.42
57192;BME280;43052;52.588;13.396;2023-03-22T08:04:24;100590.91;;;16.25;62.73
57192;BME280;43052;52.588;13.396;2023-03-22T08:06:50;100591.53;;;16.60;60.73
57192;BME280;43052;52.588;13.396;2023-03-22T08:09:16;100579.16;;;16.88;59.52
57192;BME280;43052;52.588;13.396;2023-03-22T08:11:41;100584.44;;;17.38;58.49
57192;BME280;43052;52.588;13.396;2023-03-22T08:14:06;100570.69;;;18.22;56.91
57192;BME280;43052;52.588;13.396;2023-03-22T08:16:33;100571.44;;;19.50;54.19
57192;BME280;43052;52.588;13.396;2023-03-22T08:18:58;100573.41;;;20.03;51.63
57192;BME280;43052;52.588;13.396;2023-03-22T08:21:24;100581.19;;;20.07;50.57
57192;BME280;43052;52.588;13.396;2023-03-22T08:23:49;100586.66;;;19.65;48.85
57192;BME280;43052;52.588;13.396;2023-03-22T08:26:14;100577.59;;;19.10;50.58
57192;BME280;43052;52.588;13.396;2023-03-22T08:28:40;100586.19;;;18.74;51.59
57192;BME280;43052;52.588;13.396;2023-03-22T08:31:13;100580.19;;;18.48;52.03
57192;BME280;43052;52.588;13.396;2023-03-22T08:33:39;100574.63;;;18.34;52.60
57192;BME280;43052;52.588;13.396;2023-03-22T08:36:07;100574.25;;;18.21;52.51
57192;BME280;43052;52.588;13.396;2023-03-22T08:38:33;100574.75;;;18.09;51.82
57192;BME280;43052;52.588;13.396;2023-03-22T08:40:58;100566.59;;;17.91;51.70
57192;BME280;43052;52.588;13.396;2023-03-22T08:43:23;100564.84;;;17.90;52.00
57192;BME280;43052;52.588;13.396;2023-03-22T08:45:48;100570.91;;;17.94;51.97
57192;BME280;43052;52.588;13.396;2023-03-22T08:48:14;100566.03;;;17.83;51.60
57192;BME280;43052;52.588;13.396;2023-03-22T08:50:39;100559.59;;;17.66;51.78
57192;BME280;43052;52.588;13.396;2023-03-22T08:53:04;100566.22;;;17.54;52.10
57192;BME280;43052;52.588;13.396;2023-03-22T08:55:30;100565.81;;;17.65;52.25
57192;BME280;43052;52.588;13.396;2023-03-22T08:57:55;100554.03;;;17.74;51.97
57192;BME280;43052;52.588;13.396;2023-03-22T09:00:23;100552.63;;;17.88;52.37
57192;BME280;43052;52.588;13.396;2023-03-22T09:02:49;100548.63;;;18.01;51.52
57192;BME280;43052;52.588;13.396;2023-03-22T09:05:14;100541.81;;;18.16;51.17
57192;BME280;43052;52.588;13.396;2023-03-22T09:07:39;100544.97;;;18.26;50.73
57192;BME280;43052;52.588;13.396;2023-03-22T09:10:06;100543.22;;;18.47;50.58
57192;BME280;43052;52.588;13.396;2023-03-22T09:12:32;100542.75;;;18.58;50.25
57192;BME280;43052;52.588;13.396;2023-03-22T09:14:57;100535.69;;;18.58;49.65
57192;BME280;43052;52.588;13.396;2023-03-22T09:17:22;100537.75;;;18.72;49.70
57192;BME280;43052;52.588;13.396;2023-03-22T09:19:47;100532.25;;;18.98;49.07
57192;BME280;43052;52.588;13.396;2023-03-22T09:22:13;100524.00;;;19.63;47.65
57192;BME280;43052;52.588;13.396;2023-03-22T09:24:38;100521.91;;;20.25;46.75
57192;BME280;43052;52.588;13.396;2023-03-22T09:27:04;100527.09;;;20.81;45.89
57192;BME280;43052;52.588;13.396;2023-03-22T09:29:29;100518.28;;;21.14;45.31
57192;BME280;43052;52.588;13.396;2023-03-22T09:31:54;100525.78;;;21.39;44.34
57192;BME280;43052;52.588;13.396;2023-03-22T09:34:20;100518.78;;;21.70;44.03
57192;BME280;43052;52.588;13.396;2023-03-22T09:36:46;100509.22;;;22.14;43.39
57192;BME280;43052;52.588;13.396;2023-03-22T09:39:11;100520.69;;;22.31;42.27
57192;BME280;43052;52.588;13.396;2023-03-22T09:41:40;100520.41;;;22.51;42.36
57192;BME280;43052;52.588;13.396;2023-03-22T09:44:13;100527.88;;;22.75;41.38
57192;BME280;43052;52.588;13.396;2023-03-22T09:46:46;100529.13;;;22.53;41.59
57192;BME280;43052;52.588;13.396;2023-03-22T09:49:16;100522.00;;;22.23;41.20
57192;BME280;43052;52.588;13.396;2023-03-22T09:51:44;100522.44;;;22.00;41.98
57192;BME280;43052;52.588;13.396;2023-03-22T09:54:31;100520.41;;;21.73;42.72
57192;BME280;43052;52.588;13.396;2023-03-22T09:57:21;100506.28;;;21.39;42.50
57192;BME280;43052;52.588;13.396;2023-03-22T10:02:36;100502.84;;;22.17;41.81
57192;BME280;43052;52.588;13.396;2023-03-22T10:05:11;100499.59;;;22.87;40.47
57192;BME280;43052;52.588;13.396;2023-03-22T10:10:31;100499.28;;;24.06;38.81
57192;BME280;43052;52.588;13.396;2023-03-22T10:13:05;100489.69;;;24.82;37.77
57192;BME280;43052;52.588;13.396;2023-03-22T10:15:37;100492.81;;;25.26;36.77
57192;BME280;43052;52.588;13.396;2023-03-22T10:18:12;100490.81;;;24.65;36.98
57192;BME280;43052;52.588;13.396;2023-03-22T10:20:56;100487.91;;;23.75;38.17
57192;BME280;43052;52.588;13.396;2023-03-22T10:23:28;100487.63;;;23.09;39.12
57192;BME280;43052;52.588;13.396;2023-03-22T10:25:55;100482.28;;;22.65;39.57
57192;BME280;43052;52.588;13.396;2023-03-22T10:28:26;100477.78;;;22.66;39.83
57192;BME280;43052;52.588;13.396;2023-03-22T10:30:55;100469.78;;;22.80;39.75
57192;BME280;43052;52.588;13.396;2023-03-22T10:33:40;100464.00;;;22.74;40.48
57192;BME280;43052;52.588;13.396;2023-03-22T10:36:15;100449.22;;;22.53;40.04
57192;BME280;43052;52.588;13.396;2023-03-22T10:38:47;100446.25;;;22.13;40.02
57192;BME280;43052;52.588;13.396;2023-03-22T10:41:16;100436.56;;;21.66;40.66
57192;BME280;43052;52.588;13.396;2023-03-22T10:43:43;100448.22;;;21.31;40.81
57192;BME280;43052;52.588;13.396;2023-03-22T10:46:23;100436.16;;;20.92;41.58
57192;BME280;43052;52.588;13.396;2023-03-22T10:48:50;100429.31;;;20.88;41.56
57192;BME280;43052;52.588;13.396;2023-03-22T10:51:28;100438.69;;;20.95;41.72
57192;BME280;43052;52.588;13.396;2023-03-22T10:53:54;100420.50;;;21.03;41.66
57192;BME280;43052;52.588;13.396;2023-03-22T10:56:22;100423.00;;;21.06;41.33
57192;BME280;43052;52.588;13.396;2023-03-22T10:58:49;100429.63;;;20.81;41.70
57192;BME280;43052;52.588;13.396;2023-03-22T11:01:29;100425.06;;;20.50;42.42
57192;BME280;43052;52.588;13.396;2023-03-22T11:03:59;100428.97;;;20.43;42.20
57192;BME280;43052;52.588;13.396;2023-03-22T11:06:27;100429.88;;;20.26;43.23
57192;BME280;43052;52.588;13.396;2023-03-22T11:09:12;100427.97;;;20.10;43.49
57192;BME280;43052;52.588;13.396;2023-03-22T11:11:50;100427.59;;;20.00;43.21
57192;BME280;43052;52.588;13.396;2023-03-22T11:14:31;100424.31;;;19.95;43.16
57192;BME280;43052;52.588;13.396;2023-03-22T11:19:38;100423.44;;;19.95;43.15
57192;BME280;43052;52.588;13.396;2023-03-22T11:22:34;100417.28;;;19.94;42.71
57192;BME280;43052;52.588;13.396;2023-03-22T11:25:01;100419.06;;;19.94;42.38
57192;BME280;43052;52.588;13.396;2023-03-22T11:27:32;100406.69;;;19.94;42.23
57192;BME280;43052;52.588;13.396;2023-03-22T11:32:40;100418.22;;;19.93;42.53
57192;BME280;43052;52.588;13.396;2023-03-22T11:35:20;100414.97;;;19.69;42.42
57192;BME280;43052;52.588;13.396;2023-03-22T11:37:51;100414.16;;;19.67;42.87
57192;BME280;43052;52.588;13.396;2023-03-22T11:40:19;100407.13;;;19.66;42.89
57192;BME280;43052;52.588;13.396;2023-03-22T11:42:46;100404.13;;;19.73;42.99
57192;BME280;43052;52.588;13.396;2023-03-22T11:45:20;100395.78;;;19.64;42.24
57192;BME280;43052;52.588;13.396;2023-03-22T11:47:47;100397.03;;;19.74;42.34
57192;BME280;43052;52.588;13.396;2023-03-22T11:50:30;100396.53;;;19.85;41.76
57192;BME280;43052;52.588;13.396;2023-03-22T11:53:00;100400.16;;;19.82;41.40
57192;BME280;43052;52.588;13.396;2023-03-22T11:55:28;100386.44;;;19.74;41.57
57192;BME280;43052;52.588;13.396;2023-03-22T11:57:55;100383.38;;;19.82;41.30
57192;BME280;43052;52.588;13.396;2023-03-22T12:00:25;100378.31;;;19.77;41.58
57192;BME280;43052;52.588;13.396;2023-03-22T12:05:22;100369.34;;;19.97;41.25
57192;BME280;43052;52.588;13.396;2023-03-22T12:07:52;100366.78;;;20.13;40.47
57192;BME280;43052;52.588;13.396;2023-03-22T12:10:27;100367.63;;;20.31;40.63
57192;BME280;43052;52.588;13.396;2023-03-22T12:12:59;100361.84;;;20.23;39.57
57192;BME280;43052;52.588;13.396;2023-03-22T12:15:28;100369.53;;;19.94;40.04
57192;BME280;43052;52.588;13.396;2023-03-22T12:18:04;100354.50;;;19.76;40.72
57192;BME280;43052;52.588;13.396;2023-03-22T12:20:57;100362.38;;;19.77;40.78
57192;BME280;43052;52.588;13.396;2023-03-22T12:23:28;100358.47;;;19.67;40.67
57192;BME280;43052;52.588;13.396;2023-03-22T12:31:18;100345.50;;;19.06;42.04
57192;BME280;43052;52.588;13.396;2023-03-22T12:34:06;100331.53;;;19.03;41.94
57192;BME280;43052;52.588;13.396;2023-03-22T12:36:39;100330.66;;;19.02;41.81
57192;BME280;43052;52.588;13.396;2023-03-22T12:39:09;100329.16;;;18.77;42.32
57192;BME280;43052;52.588;13.396;2023-03-22T12:41:46;100325.88;;;18.72;42.73
57192;BME280;43052;52.588;13.396;2023-03-22T12:47:29;100323.28;;;18.90;42.49
57192;BME280;43052;52.588;13.396;2023-03-22T12:50:12;100317.59;;;18.99;42.15
57192;BME280;43052;52.588;13.396;2023-03-22T12:52:45;100327.88;;;18.86;42.10
57192;BME280;43052;52.588;13.396;2023-03-22T12:55:27;100327.66;;;18.72;42.59
57192;BME280;43052;52.588;13.396;2023-03-22T12:57:54;100322.13;;;18.76;43.04
57192;BME280;43052;52.588;13.396;2023-03-22T13:00:41;100313.41;;;18.74;42.67
57192;BME280;43052;52.588;13.396;2023-03-22T13:05:47;100313.28;;;18.58;42.78
57192;BME280;43052;52.588;13.396;2023-03-22T13:08:20;100309.75;;;18.39;42.58
57192;BME280;43052;52.588;13.396;2023-03-22T13:11:03;100310.25;;;18.07;43.01
57192;BME280;43052;52.588;13.396;2023-03-22T13:21:18;100309.75;;;18.39;43.54
57192;BME280;43052;52.588;13.396;2023-03-22T13:23:54;100309.81;;;18.37;43.42
57192;BME280;43052;52.588;13.396;2023-03-22T13:26:42;100310.44;;;18.23;43.33
57192;BME280;43052;52.588;13.396;2023-03-22T13:29:17;100309.22;;;18.30;42.96
57192;BME280;43052;52.588;13.396;2023-03-22T13:34:28;100303.31;;;18.44;42.27
57192;BME280;43052;52.588;13.396;2023-03-22T13:36:55;100303.09;;;18.68;41.61
57192;BME280;43052;52.588;13.396;2023-03-22T13:39:22;100307.56;;;18.68;41.54
57192;BME280;43052;52.588;13.396;2023-03-22T13:42:00;100304.22;;;18.62;42.12
57192;BME280;43052;52.588;13.396;2023-03-22T13:44:35;100300.66;;;18.44;42.41
57192;BME280;43052;52.588;13.396;2023-03-22T13:47:01;100296.28;;;18.24;42.85